createdAt,value
2023-03-12T00:04:36.515Z,17.45
2023-03-12T00:09:39.720Z,11.25
2023-03-12T00:14:41.909Z,12.10
2023-03-12T00:19:45.583Z,11.15
2023-03-12T00:24:52.114Z,9.98
2023-03-12T00:29:54.784Z,11.98
2023-03-12T00:34:57.105Z,10.52
2023-03-12T00:39:59.876Z,10.90
2023-03-12T00:45:02.138Z,7.78
2023-03-12T00:50:04.815Z,10.48
2023-03-12T00:55:07.268Z,11.65
2023-03-12T01:00:13.167Z,13.90
2023-03-12T01:05:16.614Z,14.55
2023-03-12T01:10:21.940Z,19.92
2023-03-12T01:15:25.180Z,14.73
2023-03-12T01:20:27.711Z,7.82
2023-03-12T01:25:29.876Z,14.60
2023-03-12T01:30:32.177Z,9.85
2023-03-12T01:35:39.819Z,16.98
2023-03-12T01:40:43.988Z,10.30
2023-03-12T01:46:16.638Z,6.82
2023-03-12T01:51:20.066Z,6.93
2023-03-12T01:56:22.721Z,7.20
2023-03-12T02:01:25.495Z,4.60
2023-03-12T02:06:53.698Z,9.55
2023-03-12T02:11:56.086Z,10.85
2023-03-12T02:16:58.857Z,5.75
2023-03-12T02:22:02.110Z,5.65
2023-03-12T02:27:06.467Z,3.75
2023-03-12T02:32:10.317Z,6.68
2023-03-12T02:37:12.455Z,3.60
2023-03-12T02:42:15.493Z,3.65
2023-03-12T02:47:18.057Z,5.78
2023-03-12T02:52:20.233Z,3.45
2023-03-12T02:57:22.435Z,5.15
2023-03-12T03:02:24.855Z,6.45
2023-03-12T03:07:26.961Z,3.13
2023-03-12T03:12:29.972Z,4.22
2023-03-12T03:17:32.211Z,8.30
2023-03-12T03:22:34.414Z,5.18
2023-03-12T03:27:36.707Z,2.70
2023-03-12T03:32:39.449Z,5.18
2023-03-12T03:37:41.591Z,1.83
2023-03-12T03:42:43.826Z,1.08
2023-03-12T03:47:46.928Z,2.33
2023-03-12T03:52:49.082Z,1.60
2023-03-12T03:57:51.254Z,1.75
2023-03-12T04:02:53.569Z,2.47
2023-03-12T04:07:56.662Z,3.03
2023-03-12T04:12:59.018Z,8.13
2023-03-12T04:18:01.233Z,3.72
2023-03-12T04:23:03.406Z,3.97
2023-03-12T04:28:06.654Z,5.45
2023-03-12T04:33:09.285Z,3.08
2023-03-12T04:38:11.979Z,3.40
2023-03-12T04:43:14.617Z,4.00
2023-03-12T04:48:16.723Z,1.60
2023-03-12T04:53:19.905Z,2.15
2023-03-12T04:58:22.768Z,2.47
2023-03-12T05:03:25.231Z,10.15
2023-03-12T05:08:27.516Z,2.53
2023-03-12T05:13:29.676Z,1.75
2023-03-12T05:18:31.942Z,3.25
2023-03-12T05:23:35.129Z,4.78
2023-03-12T05:28:37.241Z,4.03
2023-03-12T05:33:39.479Z,3.72
2023-03-12T05:38:43.045Z,4.40
2023-03-12T05:43:46.790Z,4.50
2023-03-12T05:48:49.007Z,4.07
2023-03-12T05:53:51.156Z,3.58
2023-03-12T05:58:53.765Z,6.75
2023-03-12T06:03:56.150Z,4.93
2023-03-12T06:08:58.311Z,4.93
2023-03-12T06:14:00.435Z,3.72
2023-03-12T06:19:04.296Z,3.33
2023-03-12T06:24:07.099Z,4.05
2023-03-12T06:29:09.357Z,4.00
2023-03-12T06:34:11.556Z,9.98
2023-03-12T06:39:13.841Z,4.63
2023-03-12T06:44:16.198Z,4.93
2023-03-12T06:49:19.348Z,4.78
2023-03-12T06:54:21.443Z,1.50
2023-03-12T06:59:25.275Z,2.20
2023-03-12T07:04:27.441Z,3.42
2023-03-12T07:09:29.674Z,4.15
2023-03-12T07:14:31.808Z,5.82
2023-03-12T07:19:34.023Z,3.45
2023-03-12T07:24:36.213Z,3.83
2023-03-12T07:29:38.426Z,4.25
2023-03-12T07:34:40.568Z,3.28
2023-03-12T07:39:44.788Z,3.50
2023-03-12T07:44:47.244Z,5.75
2023-03-12T07:55:11.251Z,3.38
2023-03-12T08:00:14.278Z,6.57
2023-03-12T08:05:16.655Z,8.80
2023-03-12T08:10:20.720Z,8.80
2023-03-12T08:15:23.060Z,9.35
2023-03-12T08:20:25.239Z,9.77
2023-03-12T08:25:27.842Z,2.70
2023-03-12T08:30:31.127Z,5.25
2023-03-12T08:35:33.292Z,4.72
2023-03-12T08:40:35.918Z,2.25
2023-03-12T08:45:38.210Z,2.95
2023-03-12T08:50:40.394Z,2.22
2023-03-12T08:55:42.622Z,3.17
2023-03-12T09:00:44.848Z,2.63
2023-03-12T09:05:46.978Z,2.20
2023-03-12T09:10:50.480Z,3.33
2023-03-12T09:15:52.563Z,3.85
2023-03-12T09:20:54.944Z,6.13
2023-03-12T09:25:57.709Z,3.58
2023-03-12T09:31:02.838Z,6.20
2023-03-12T09:36:05.284Z,5.53
2023-03-12T09:41:27.556Z,2.50
2023-03-12T09:46:47.572Z,2.78
2023-03-12T09:51:55.466Z,5.82
2023-03-12T09:57:03.445Z,4.22
2023-03-12T10:02:25.560Z,5.88
2023-03-12T10:07:42.014Z,2.95
2023-03-12T10:13:05.265Z,4.10
2023-03-12T10:18:38.748Z,4.40
2023-03-12T10:24:03.053Z,4.75
2023-03-12T10:29:16.540Z,3.47
2023-03-12T10:34:33.091Z,3.92
2023-03-12T10:39:35.822Z,4.95
2023-03-12T10:44:37.892Z,3.50
2023-03-12T10:49:40.913Z,5.82
2023-03-12T10:54:45.368Z,2.13
2023-03-12T10:59:49.323Z,6.35
2023-03-12T11:04:53.078Z,7.30
2023-03-12T11:10:26.352Z,17.30
2023-03-12T11:15:38.474Z,6.43
2023-03-12T11:20:41.081Z,20.33
2023-03-12T11:25:44.334Z,11.48
2023-03-12T11:30:47.372Z,4.97
2023-03-12T11:36:10.657Z,8.02
2023-03-12T11:41:47.831Z,6.18
2023-03-12T11:47:21.349Z,6.78
2023-03-12T11:52:41.333Z,4.65
2023-03-12T11:57:59.908Z,4.45
2023-03-12T12:03:16.289Z,8.50
2023-03-12T12:08:36.692Z,6.30
2023-03-12T12:19:40.571Z,5.18
2023-03-12T12:25:14.830Z,7.05
2023-03-12T12:30:41.580Z,7.18
2023-03-12T12:35:44.171Z,6.68
2023-03-12T12:40:55.002Z,6.72
2023-03-12T12:46:02.720Z,6.57
2023-03-12T12:51:08.783Z,5.43
2023-03-12T12:56:33.875Z,3.47
2023-03-12T13:01:38.381Z,6.50
2023-03-12T13:07:19.205Z,6.82
2023-03-12T13:12:50.852Z,6.15
2023-03-12T13:17:53.134Z,4.35
2023-03-12T13:23:07.310Z,4.57
2023-03-12T13:28:33.151Z,6.22
2023-03-12T13:33:48.852Z,4.38
2023-03-12T13:39:01.176Z,6.50
2023-03-12T13:44:38.793Z,4.97
2023-03-12T13:49:53.100Z,5.28
2023-03-12T13:55:07.013Z,5.80
2023-03-12T14:00:30.112Z,6.18
2023-03-12T14:05:36.135Z,4.50
2023-03-12T14:10:54.096Z,7.55
2023-03-12T14:16:14.603Z,4.88
2023-03-12T14:21:18.840Z,9.63
2023-03-12T14:26:40.330Z,6.75
2023-03-12T14:31:50.461Z,6.57
2023-03-12T14:37:10.538Z,9.02
2023-03-12T14:42:26.238Z,12.10
2023-03-12T14:47:28.970Z,9.50
2023-03-12T14:52:31.572Z,8.40
2023-03-12T14:57:34.122Z,4.07
2023-03-12T15:02:38.540Z,10.90
2023-03-12T15:07:43.148Z,4.03
2023-03-12T15:12:46.505Z,4.35
2023-03-12T15:17:50.068Z,7.53
2023-03-12T15:22:53.342Z,7.32
2023-03-12T15:28:22.972Z,5.78
2023-03-12T15:33:26.968Z,10.73
2023-03-12T15:38:33.301Z,14.43
2023-03-12T15:43:38.719Z,10.25
2023-03-12T15:48:42.049Z,5.70
2023-03-12T15:53:44.326Z,5.53
2023-03-12T15:58:46.543Z,77.55
2023-03-12T16:03:49.563Z,28.08
2023-03-12T16:09:03.453Z,6.75
2023-03-12T16:14:13.889Z,5.03
2023-03-12T16:19:19.135Z,14.00
2023-03-12T16:24:21.579Z,6.47
2023-03-12T16:29:31.899Z,8.80
2023-03-12T16:34:33.994Z,7.55
2023-03-12T16:39:36.296Z,8.10
2023-03-12T16:44:38.877Z,7.85
2023-03-12T16:49:41.400Z,16.13
2023-03-12T16:54:43.740Z,16.00
2023-03-12T16:59:46.772Z,16.50
2023-03-12T17:04:49.302Z,17.52
2023-03-12T17:09:52.371Z,15.25
2023-03-12T17:14:55.245Z,15.90
2023-03-12T17:20:01.233Z,21.10
2023-03-12T17:25:04.146Z,30.85
2023-03-12T17:30:09.140Z,36.42
2023-03-12T17:35:11.963Z,34.65
2023-03-12T17:40:15.519Z,31.60
2023-03-12T17:45:19.511Z,28.58
2023-03-12T17:50:22.622Z,26.23
2023-03-12T17:55:24.853Z,28.52
2023-03-12T18:00:26.985Z,21.25
2023-03-12T18:05:29.815Z,22.10
2023-03-12T18:10:34.966Z,26.42
2023-03-12T18:15:38.167Z,27.95
2023-03-12T18:20:41.155Z,29.65
2023-03-12T18:25:44.490Z,25.17
2023-03-12T18:30:48.016Z,27.27
2023-03-12T18:35:53.230Z,30.50
2023-03-12T18:41:19.546Z,36.70
2023-03-12T18:46:25.001Z,29.02
2023-03-12T18:51:27.813Z,41.00
2023-03-12T18:56:30.421Z,16.95
2023-03-12T19:06:52.892Z,29.80
2023-03-12T19:11:55.768Z,31.00
2023-03-12T19:16:58.342Z,37.42
2023-03-12T19:22:02.762Z,39.88
2023-03-12T19:27:04.982Z,39.03
2023-03-12T19:32:08.274Z,44.65
2023-03-12T19:37:10.691Z,34.92
2023-03-12T19:42:14.056Z,32.45
2023-03-12T19:47:18.332Z,34.80
2023-03-12T19:52:21.659Z,28.98
2023-03-12T19:57:24.836Z,27.45
2023-03-12T20:02:27.806Z,29.65
2023-03-12T20:07:30.105Z,28.92
2023-03-12T20:12:33.645Z,38.78
2023-03-12T20:17:36.605Z,38.08
2023-03-12T20:22:38.786Z,28.63
2023-03-12T20:27:41.869Z,25.67
2023-03-12T20:32:44.204Z,12.73
2023-03-12T20:37:46.583Z,9.68
2023-03-12T20:42:48.735Z,9.95
2023-03-12T20:47:51.637Z,9.88
2023-03-12T20:52:55.141Z,13.23
2023-03-12T20:57:57.322Z,21.35
2023-03-12T21:02:59.627Z,13.05
2023-03-12T21:08:02.099Z,6.95
2023-03-12T21:13:08.843Z,13.25
2023-03-12T21:18:11.928Z,17.30
2023-03-12T21:23:16.750Z,11.80
2023-03-12T21:28:19.782Z,10.18
2023-03-12T21:33:22.479Z,9.73
2023-03-12T21:38:25.467Z,7.82
2023-03-12T21:43:29.761Z,5.30
2023-03-12T21:48:32.059Z,5.63
2023-03-12T21:53:34.766Z,4.63
2023-03-12T21:58:37.555Z,4.30
2023-03-12T22:03:42.323Z,4.03
2023-03-12T22:08:48.985Z,5.75
2023-03-12T22:13:52.235Z,4.15
2023-03-12T22:18:54.566Z,4.65
2023-03-12T22:23:58.521Z,3.35
2023-03-12T22:29:02.598Z,2.92
2023-03-12T22:34:04.928Z,4.65
2023-03-12T22:39:07.248Z,4.60
2023-03-12T22:44:09.782Z,2.92
2023-03-12T22:49:12.097Z,5.32
2023-03-12T22:54:14.342Z,5.53
2023-03-12T22:59:16.511Z,4.57
2023-03-12T23:04:18.817Z,8.18
2023-03-12T23:09:21.138Z,10.60
2023-03-12T23:14:23.294Z,5.95
2023-03-12T23:19:25.478Z,4.50
2023-03-12T23:24:30.017Z,3.70
2023-03-12T23:29:33.334Z,2.13
2023-03-12T23:34:35.426Z,2.38
2023-03-12T23:39:53.506Z,2.30
2023-03-12T23:44:56.363Z,4.97
2023-03-12T23:49:59.360Z,2.28
2023-03-12T23:55:01.529Z,3.33
